createdAt,value
2022-12-15T00:00:23.711Z,-5.31
2022-12-15T00:03:09.828Z,-5.23
2022-12-15T00:05:56.710Z,-5.17
2022-12-15T00:08:42.706Z,-5.10
2022-12-15T00:11:28.163Z,-5.08
2022-12-15T00:14:13.758Z,-5.07
2022-12-15T00:16:59.667Z,-5.04
2022-12-15T00:19:45.044Z,-5.00
2022-12-15T00:22:31.938Z,-4.99
2022-12-15T00:25:17.362Z,-4.99
2022-12-15T00:28:03.245Z,-4.98
2022-12-15T00:30:49.615Z,-5.01
2022-12-15T00:33:35.966Z,-5.22
2022-12-15T00:36:22.033Z,-5.32
2022-12-15T00:38:52.217Z,-5.35
2022-12-15T00:41:20.537Z,-5.34
2022-12-15T00:43:48.850Z,-5.29
2022-12-15T00:46:46.754Z,-5.27
2022-12-15T00:49:28.904Z,-5.20
2022-12-15T00:52:14.809Z,-5.26
2022-12-15T00:55:02.296Z,-5.23
2022-12-15T00:57:47.747Z,-5.25
2022-12-15T01:00:34.091Z,-5.18
2022-12-15T01:03:19.730Z,-5.18
2022-12-15T01:06:05.350Z,-5.13
2022-12-15T01:08:50.956Z,-5.10
2022-12-15T01:11:38.356Z,-5.10
2022-12-15T01:14:23.723Z,-5.13
2022-12-15T01:17:09.298Z,-5.13
2022-12-15T01:19:54.738Z,-5.13
2022-12-15T01:22:23.266Z,-5.16
2022-12-15T01:24:51.558Z,-5.09
2022-12-15T01:27:21.229Z,-5.10
2022-12-15T01:29:49.422Z,-5.12
2022-12-15T01:32:17.656Z,-5.14
2022-12-15T01:34:45.900Z,-5.13
2022-12-15T01:37:14.434Z,-5.10
2022-12-15T01:40:00.208Z,-5.15
2022-12-15T01:42:30.121Z,-5.15
2022-12-15T01:45:31.867Z,-5.12
2022-12-15T01:48:04.228Z,-5.12
2022-12-15T01:50:34.098Z,-5.10
2022-12-15T01:53:03.174Z,-5.08
2022-12-15T01:55:33.094Z,-5.10
2022-12-15T01:58:06.771Z,-5.11
2022-12-15T02:00:35.665Z,-5.13
2022-12-15T02:03:06.362Z,-5.09
2022-12-15T02:05:35.619Z,-5.01
2022-12-15T02:08:05.799Z,-4.95
2022-12-15T02:10:49.998Z,-4.97
2022-12-15T02:13:24.574Z,-4.99
2022-12-15T02:16:01.158Z,-5.05
2022-12-15T02:18:36.498Z,-5.00
2022-12-15T02:21:11.020Z,-5.00
2022-12-15T02:24:21.913Z,-4.97
2022-12-15T02:27:31.332Z,-4.94
2022-12-15T02:30:26.325Z,-4.94
2022-12-15T02:33:09.950Z,-4.99
2022-12-15T02:35:49.092Z,-5.00
2022-12-15T02:38:17.701Z,-5.05
2022-12-15T02:40:45.945Z,-5.04
2022-12-15T02:43:14.256Z,-5.02
2022-12-15T02:45:53.175Z,-4.96
2022-12-15T02:48:31.560Z,-4.94
2022-12-15T02:51:12.863Z,-4.96
2022-12-15T02:54:23.119Z,-5.00
2022-12-15T02:57:03.984Z,-5.07
2022-12-15T02:59:40.109Z,-5.08
2022-12-15T03:02:12.041Z,-5.13
2022-12-15T03:04:41.071Z,-5.14
2022-12-15T03:07:11.411Z,-5.17
2022-12-15T03:09:39.657Z,-5.14
2022-12-15T03:12:11.259Z,-5.19
2022-12-15T03:14:39.650Z,-5.14
2022-12-15T03:17:09.503Z,-5.18
2022-12-15T03:19:37.779Z,-5.13
2022-12-15T03:22:06.082Z,-5.13
2022-12-15T03:24:34.331Z,-5.12
2022-12-15T03:27:02.815Z,-5.12
2022-12-15T03:29:31.076Z,-5.09
2022-12-15T03:31:59.381Z,-5.03
2022-12-15T03:34:29.028Z,-5.00
2022-12-15T03:36:57.408Z,-5.01
2022-12-15T03:39:25.613Z,-5.10
2022-12-15T03:41:53.860Z,-5.16
2022-12-15T03:44:22.155Z,-5.24
2022-12-15T03:46:50.401Z,-5.20
2022-12-15T03:49:18.887Z,-5.18
2022-12-15T03:51:48.492Z,-5.20
2022-12-15T03:54:16.888Z,-5.23
2022-12-15T03:56:45.526Z,-5.23
2022-12-15T03:59:13.760Z,-5.23
2022-12-15T04:01:47.812Z,-5.24
2022-12-15T04:04:16.162Z,-5.13
2022-12-15T04:06:44.387Z,-5.13
2022-12-15T04:09:13.953Z,-5.03
2022-12-15T04:11:42.210Z,-5.10
2022-12-15T04:14:10.708Z,-5.17
2022-12-15T04:16:39.032Z,-5.19
2022-12-15T04:19:24.520Z,-5.23
2022-12-15T04:21:52.767Z,-5.20
2022-12-15T04:24:40.155Z,-5.24
2022-12-15T04:27:25.440Z,-5.32
2022-12-15T04:30:10.873Z,-5.34
2022-12-15T04:32:56.847Z,-5.39
2022-12-15T04:35:42.322Z,-5.42
2022-12-15T04:38:28.295Z,-5.43
2022-12-15T04:41:15.677Z,-5.42
2022-12-15T04:44:01.610Z,-5.35
2022-12-15T04:46:47.078Z,-5.30
2022-12-15T04:49:32.394Z,-5.20
2022-12-15T04:52:18.195Z,-5.18
2022-12-15T04:55:03.879Z,-5.07
2022-12-15T04:57:50.904Z,-5.08
2022-12-15T05:00:36.645Z,-5.17
2022-12-15T05:03:23.769Z,-5.22
2022-12-15T05:06:09.811Z,-5.16
2022-12-15T05:08:55.500Z,-5.19
2022-12-15T05:11:41.171Z,-5.20
2022-12-15T05:14:28.226Z,-5.27
2022-12-15T05:17:13.905Z,-5.28
2022-12-15T05:19:59.575Z,-5.34
2022-12-15T05:22:45.184Z,-5.39
2022-12-15T05:25:30.660Z,-5.35
2022-12-15T05:28:16.189Z,-5.29
2022-12-15T05:31:03.533Z,-5.23
2022-12-15T05:33:32.072Z,-5.26
2022-12-15T05:36:00.558Z,-5.29
2022-12-15T05:38:28.905Z,-5.23
2022-12-15T05:40:58.788Z,-5.23
2022-12-15T05:43:27.385Z,-5.14
2022-12-15T05:45:57.043Z,-5.14
2022-12-15T05:48:25.405Z,-5.13
2022-12-15T05:50:53.712Z,-5.14
2022-12-15T05:53:22.025Z,-5.22
2022-12-15T05:55:50.250Z,-5.23
2022-12-15T05:58:18.485Z,-5.20
2022-12-15T06:00:46.690Z,-5.18
2022-12-15T06:03:16.471Z,-5.14
2022-12-15T06:05:44.697Z,-5.14
2022-12-15T06:08:13.055Z,-5.11
2022-12-15T06:10:41.264Z,-5.13
2022-12-15T06:13:09.521Z,-5.13
2022-12-15T06:15:37.699Z,-5.19
2022-12-15T06:18:06.279Z,-5.13
2022-12-15T06:20:35.901Z,-5.12
2022-12-15T06:23:04.269Z,-5.22
2022-12-15T06:25:32.482Z,-5.29
2022-12-15T06:28:02.012Z,-5.30
2022-12-15T06:30:30.493Z,-5.27
2022-12-15T06:32:58.840Z,-5.31
2022-12-15T06:35:27.157Z,-5.35
2022-12-15T06:37:56.754Z,-5.41
2022-12-15T06:40:24.952Z,-5.46
2022-12-15T06:42:53.227Z,-5.43
2022-12-15T06:45:21.441Z,-5.44
2022-12-15T06:47:50.139Z,-5.44
2022-12-15T06:50:18.554Z,-5.45
2022-12-15T06:52:46.864Z,-5.46
2022-12-15T06:55:16.688Z,-5.46
2022-12-15T06:57:44.922Z,-5.40
2022-12-15T07:00:15.394Z,-5.34
2022-12-15T07:02:43.885Z,-5.27
2022-12-15T07:05:18.482Z,-5.29
2022-12-15T07:07:46.694Z,-5.26
2022-12-15T07:10:16.399Z,-5.23
2022-12-15T07:12:44.620Z,-5.16
2022-12-15T07:15:13.408Z,-5.17
2022-12-15T07:17:41.961Z,-5.19
2022-12-15T07:20:11.308Z,-5.24
2022-12-15T07:22:39.573Z,-5.26
2022-12-15T07:25:09.360Z,-5.30
2022-12-15T07:27:38.964Z,-5.26
2022-12-15T07:30:08.425Z,-5.29
2022-12-15T07:32:36.664Z,-5.29
2022-12-15T07:35:07.750Z,-5.30
2022-12-15T07:37:37.054Z,-5.23
2022-12-15T07:40:06.614Z,-5.17
2022-12-15T07:42:34.955Z,-5.18
2022-12-15T07:45:05.464Z,-5.14
2022-12-15T07:47:34.042Z,-5.10
2022-12-15T07:50:02.242Z,-5.13
2022-12-15T07:52:31.121Z,-5.19
2022-12-15T07:54:59.323Z,-5.19
2022-12-15T07:57:27.786Z,-5.18
2022-12-15T07:59:57.089Z,-5.22
2022-12-15T08:02:27.011Z,-5.16
2022-12-15T08:04:55.477Z,-5.10
2022-12-15T08:07:23.724Z,-5.00
2022-12-15T08:09:53.894Z,-4.93
2022-12-15T08:12:22.093Z,-4.87
2022-12-15T08:14:50.701Z,-4.93
2022-12-15T08:17:18.987Z,-4.98
2022-12-15T08:19:48.534Z,-4.91
2022-12-15T08:22:16.768Z,-4.88
2022-12-15T08:24:45.016Z,-4.83
2022-12-15T08:27:13.272Z,-4.83
2022-12-15T08:29:51.065Z,-4.80
2022-12-15T08:32:20.360Z,-4.74
2022-12-15T08:34:50.321Z,-4.72
2022-12-15T08:37:18.625Z,-4.70
2022-12-15T08:39:48.033Z,-4.63
2022-12-15T08:42:16.338Z,-4.58
2022-12-15T08:44:44.648Z,-4.54
2022-12-15T08:47:12.859Z,-4.45
2022-12-15T08:49:41.144Z,-4.44
2022-12-15T08:52:10.869Z,-4.44
2022-12-15T08:54:39.234Z,-4.38
2022-12-15T08:57:07.432Z,-4.37
2022-12-15T08:59:36.016Z,-4.34
2022-12-15T09:02:04.365Z,-4.27
2022-12-15T09:04:32.972Z,-4.23
2022-12-15T09:07:01.272Z,-4.11
2022-12-15T09:09:30.898Z,-3.98
2022-12-15T09:11:59.105Z,-3.98
2022-12-15T09:14:29.666Z,-3.90
2022-12-15T09:16:58.178Z,-3.83
2022-12-15T09:19:26.519Z,-3.79
2022-12-15T09:21:55.651Z,-3.67
2022-12-15T09:24:32.461Z,-3.61
2022-12-15T09:27:04.777Z,-3.48
2022-12-15T09:29:33.450Z,-3.43
2022-12-15T09:32:01.654Z,-3.37
2022-12-15T09:34:29.965Z,-3.37
2022-12-15T09:36:58.306Z,-3.34
2022-12-15T09:39:26.642Z,-3.24
2022-12-15T09:41:57.192Z,-3.09
2022-12-15T09:44:28.856Z,-2.93
2022-12-15T09:47:06.918Z,-2.90
2022-12-15T09:49:47.221Z,-2.83
2022-12-15T09:52:18.490Z,-2.86
2022-12-15T09:54:47.492Z,-2.82
2022-12-15T09:57:24.763Z,-2.90
2022-12-15T10:00:21.821Z,-2.82
2022-12-15T10:03:33.412Z,-2.69
2022-12-15T10:06:17.701Z,-2.72
2022-12-15T10:08:50.956Z,-2.72
2022-12-15T10:11:28.108Z,-2.63
2022-12-15T10:14:00.954Z,-2.60
2022-12-15T10:16:38.242Z,-2.58
2022-12-15T10:19:13.369Z,-2.51
2022-12-15T10:21:42.493Z,-2.48
2022-12-15T10:24:37.547Z,-2.46
2022-12-15T10:27:21.453Z,-2.29
2022-12-15T10:30:01.160Z,-2.17
2022-12-15T10:32:43.851Z,-2.12
2022-12-15T10:35:16.754Z,-2.09
2022-12-15T10:37:45.029Z,-2.07
2022-12-15T10:40:19.020Z,-2.12
2022-12-15T10:42:49.982Z,-2.03
2022-12-15T10:45:35.636Z,-1.89
2022-12-15T10:48:07.147Z,-1.82
2022-12-15T10:50:35.865Z,-1.70
2022-12-15T10:53:09.964Z,-1.63
2022-12-15T10:55:40.554Z,-1.41
2022-12-15T10:58:18.164Z,-1.40
2022-12-15T11:00:50.897Z,-1.28
2022-12-15T11:03:26.198Z,-1.23
2022-12-15T11:05:56.097Z,-1.14
2022-12-15T11:08:25.420Z,-1.18
2022-12-15T11:11:12.853Z,-0.98
2022-12-15T11:13:42.016Z,-0.95
2022-12-15T11:16:16.753Z,-0.85
2022-12-15T11:18:50.484Z,-0.73
2022-12-15T11:21:23.582Z,-0.74
2022-12-15T11:23:58.916Z,-0.74
2022-12-15T11:26:37.344Z,-0.68
2022-12-15T11:29:16.925Z,-0.57
2022-12-15T11:31:48.688Z,-0.57
2022-12-15T11:34:21.758Z,-0.61
2022-12-15T11:37:19.263Z,-0.52
2022-12-15T11:40:00.567Z,-0.44
2022-12-15T11:42:39.242Z,-0.38
2022-12-15T11:45:15.247Z,-0.36
2022-12-15T11:47:49.726Z,-0.35
2022-12-15T11:50:31.495Z,-0.28
2022-12-15T11:53:23.784Z,-0.23
2022-12-15T11:55:59.619Z,-0.11
2022-12-15T11:58:56.670Z,-0.02
2022-12-15T12:01:49.446Z,0.10
2022-12-15T12:04:25.567Z,0.21
2022-12-15T12:07:07.831Z,0.34
2022-12-15T12:09:38.522Z,0.55
2022-12-15T12:12:20.259Z,0.61
2022-12-15T12:14:57.606Z,0.57
2022-12-15T12:17:38.531Z,0.62
2022-12-15T12:20:16.030Z,0.59
2022-12-15T12:22:53.926Z,0.72
2022-12-15T12:25:24.298Z,0.79
2022-12-15T12:27:56.850Z,0.97
2022-12-15T12:30:28.027Z,0.97
2022-12-15T12:33:05.433Z,0.98
2022-12-15T12:35:39.236Z,1.02
2022-12-15T12:38:12.296Z,1.07
2022-12-15T12:40:52.732Z,1.16
2022-12-15T12:43:33.143Z,1.18
2022-12-15T12:46:08.064Z,1.21
2022-12-15T12:48:40.784Z,1.12
2022-12-15T12:51:17.549Z,1.19
2022-12-15T12:53:48.747Z,1.16
2022-12-15T12:56:38.714Z,1.17
2022-12-15T12:59:37.331Z,1.19
2022-12-15T13:02:47.629Z,1.28
2022-12-15T13:05:40.473Z,1.38
2022-12-15T13:08:53.186Z,1.45
2022-12-15T13:11:56.605Z,1.48
2022-12-15T13:14:46.684Z,1.45
2022-12-15T13:17:27.547Z,1.50
2022-12-15T13:20:22.979Z,1.49
2022-12-15T13:22:52.027Z,1.49
2022-12-15T13:25:40.547Z,1.50
2022-12-15T13:28:24.387Z,1.50
2022-12-15T13:31:23.107Z,1.46
2022-12-15T13:34:12.452Z,1.46
2022-12-15T13:37:08.254Z,1.46
2022-12-15T13:39:53.132Z,1.45
2022-12-15T13:42:45.360Z,1.48
2022-12-15T13:45:48.875Z,1.46
2022-12-15T13:48:31.036Z,1.42
2022-12-15T13:51:18.947Z,1.35
2022-12-15T13:56:50.808Z,1.26
2022-12-15T13:59:31.967Z,1.23
2022-12-15T14:02:01.930Z,1.20
2022-12-15T14:04:30.468Z,1.09
2022-12-15T14:07:02.175Z,1.07
2022-12-15T14:09:34.700Z,1.04
2022-12-15T14:12:04.871Z,0.99
2022-12-15T14:14:36.133Z,1.05
2022-12-15T14:17:10.296Z,1.13
2022-12-15T14:19:40.919Z,1.13
2022-12-15T14:22:27.658Z,1.07
2022-12-15T14:25:02.852Z,0.91
2022-12-15T14:27:34.277Z,0.78
2022-12-15T14:30:25.729Z,0.65
2022-12-15T14:33:00.804Z,0.60
2022-12-15T14:35:38.052Z,0.46
2022-12-15T14:38:12.585Z,0.39
2022-12-15T14:40:42.550Z,0.35
2022-12-15T14:43:17.082Z,0.36
2022-12-15T14:45:45.619Z,0.33
2022-12-15T14:51:15.438Z,0.68
2022-12-15T14:53:49.031Z,0.86
2022-12-15T14:56:31.514Z,0.90
2022-12-15T14:59:04.033Z,0.89
2022-12-15T15:01:40.102Z,0.91
2022-12-15T15:03:11.859Z,1.38
2022-12-15T15:03:14.539Z,0.50
2022-12-15T15:04:29.233Z,0.86
2022-12-15T15:07:00.319Z,0.87
2022-12-15T15:09:30.309Z,0.93
2022-12-15T15:12:02.703Z,0.92
2022-12-15T15:14:33.841Z,0.86
2022-12-15T15:17:07.421Z,0.78
2022-12-15T15:19:40.019Z,0.67
2022-12-15T15:22:26.929Z,0.59
2022-12-15T15:24:55.314Z,0.46
2022-12-15T15:27:26.813Z,0.33
2022-12-15T15:30:13.234Z,0.14
2022-12-15T15:32:52.097Z,-0.12
2022-12-15T15:35:22.180Z,-0.22
2022-12-15T15:37:51.645Z,-0.36
2022-12-15T15:40:19.848Z,-0.46
2022-12-15T15:42:49.077Z,-0.62
2022-12-15T15:45:17.475Z,-0.71
2022-12-15T15:47:49.335Z,-0.72
2022-12-15T15:50:26.596Z,-0.81
2022-12-15T15:52:54.896Z,-0.91
2022-12-15T15:55:31.383Z,-1.03
2022-12-15T15:58:01.839Z,-1.10
2022-12-15T16:00:30.125Z,-1.21
2022-12-15T16:02:58.795Z,-1.33
2022-12-15T16:05:28.800Z,-1.41
2022-12-15T16:07:58.526Z,-1.35
2022-12-15T16:10:28.152Z,-1.38
2022-12-15T16:12:58.953Z,-1.44
2022-12-15T16:15:29.845Z,-1.42
2022-12-15T16:17:58.552Z,-1.36
2022-12-15T16:20:30.932Z,-1.30
2022-12-15T16:23:02.183Z,-1.12
2022-12-15T16:25:43.834Z,-1.17
2022-12-15T16:28:18.711Z,-1.15
2022-12-15T16:30:47.211Z,-1.25
2022-12-15T16:33:16.084Z,-1.31
2022-12-15T16:35:48.227Z,-1.35
2022-12-15T16:38:19.640Z,-1.33
2022-12-15T16:40:47.972Z,-1.55
2022-12-15T16:43:18.645Z,-1.61
2022-12-15T16:45:50.195Z,-1.70
2022-12-15T16:48:19.190Z,-1.72
2022-12-15T16:50:52.181Z,-1.87
2022-12-15T16:53:27.380Z,-1.88
2022-12-15T16:55:57.633Z,-1.93
2022-12-15T16:58:28.341Z,-1.97
2022-12-15T17:00:56.938Z,-2.09
2022-12-15T17:03:27.725Z,-2.17
2022-12-15T17:06:00.926Z,-2.17
2022-12-15T17:08:34.709Z,-2.20
2022-12-15T17:11:03.353Z,-2.07
2022-12-15T17:13:41.890Z,-2.02
2022-12-15T17:16:14.949Z,-2.07
2022-12-15T17:18:44.542Z,-2.10
2022-12-15T17:21:17.875Z,-2.23
2022-12-15T17:23:49.080Z,-2.20
2022-12-15T17:26:29.259Z,-2.36
2022-12-15T17:29:01.711Z,-2.39
2022-12-15T17:31:35.143Z,-2.50
2022-12-15T17:34:23.858Z,-2.41
2022-12-15T17:36:53.935Z,-2.39
2022-12-15T17:39:23.740Z,-2.19
2022-12-15T17:42:07.383Z,-2.14
2022-12-15T17:44:38.276Z,-2.07
2022-12-15T17:47:09.555Z,-1.98
2022-12-15T17:49:39.115Z,-2.05
2022-12-15T17:52:28.555Z,-2.05
2022-12-15T17:54:57.922Z,-2.08
2022-12-15T17:57:26.425Z,-2.06
2022-12-15T17:59:55.144Z,-2.07
2022-12-15T18:02:23.627Z,-2.03
2022-12-15T18:04:52.039Z,-2.06
2022-12-15T18:07:23.944Z,-2.06
2022-12-15T18:09:53.456Z,-2.12
2022-12-15T18:12:23.698Z,-2.28
2022-12-15T18:14:52.397Z,-2.23
2022-12-15T18:17:20.785Z,-2.19
2022-12-15T18:19:49.537Z,-2.16
2022-12-15T18:22:23.403Z,-2.08
2022-12-15T18:24:53.841Z,-2.05
2022-12-15T18:27:23.832Z,-1.94
2022-12-15T18:29:52.639Z,-2.02
2022-12-15T18:32:23.513Z,-2.07
2022-12-15T18:34:52.461Z,-2.14
2022-12-15T18:37:24.756Z,-2.18
2022-12-15T18:39:53.678Z,-2.14
2022-12-15T18:42:23.186Z,-2.28
2022-12-15T18:44:53.620Z,-2.33
2022-12-15T18:47:24.952Z,-2.45
2022-12-15T18:49:53.390Z,-2.36
2022-12-15T18:52:27.614Z,-2.23
2022-12-15T18:54:57.299Z,-2.17
2022-12-15T18:57:29.279Z,-2.20
2022-12-15T18:59:59.001Z,-2.23
2022-12-15T19:02:27.421Z,-2.15
2022-12-15T19:04:55.814Z,-2.05
2022-12-15T19:07:25.560Z,-2.02
2022-12-15T19:09:54.512Z,-2.03
2022-12-15T19:12:22.951Z,-2.04
2022-12-15T19:14:55.136Z,-2.02
2022-12-15T19:17:42.569Z,-2.03
2022-12-15T19:20:34.930Z,-2.05
2022-12-15T19:23:05.403Z,-2.00
2022-12-15T19:25:34.719Z,-2.04
2022-12-15T19:28:03.061Z,-1.98
2022-12-15T19:30:40.164Z,-1.91
2022-12-15T19:33:10.847Z,-1.93
2022-12-15T19:35:40.857Z,-2.00
2022-12-15T19:38:19.264Z,-2.04
2022-12-15T19:40:48.615Z,-2.18
2022-12-15T19:43:17.929Z,-2.27
2022-12-15T19:45:47.294Z,-2.35
2022-12-15T19:48:20.067Z,-2.42
2022-12-15T19:50:52.153Z,-2.46
2022-12-15T19:53:28.518Z,-2.37
2022-12-15T19:55:59.449Z,-2.46
2022-12-15T19:58:30.217Z,-2.42
2022-12-15T20:01:01.456Z,-2.35
2022-12-15T20:03:31.647Z,-2.37
2022-12-15T20:06:02.439Z,-2.37
2022-12-15T20:08:36.384Z,-2.38
2022-12-15T20:11:06.552Z,-2.46
2022-12-15T20:13:35.972Z,-2.50
2022-12-15T20:16:04.567Z,-2.54
2022-12-15T20:18:34.724Z,-2.59
2022-12-15T20:21:03.343Z,-2.57
2022-12-15T20:23:35.770Z,-2.51
2022-12-15T20:26:04.442Z,-2.50
2022-12-15T20:28:33.856Z,-2.52
2022-12-15T20:31:02.336Z,-2.52
2022-12-15T20:33:31.257Z,-2.50
2022-12-15T20:36:00.380Z,-2.35
2022-12-15T20:38:31.540Z,-2.27
2022-12-15T20:41:02.851Z,-2.23
2022-12-15T20:43:34.754Z,-2.19
2022-12-15T20:46:07.914Z,-2.22
2022-12-15T20:48:37.774Z,-2.21
2022-12-15T20:51:10.069Z,-2.22
2022-12-15T20:53:38.901Z,-2.23
2022-12-15T20:56:11.191Z,-2.28
2022-12-15T20:58:39.738Z,-2.27
2022-12-15T21:01:19.337Z,-2.29
2022-12-15T21:03:48.971Z,-2.28
2022-12-15T21:06:17.972Z,-2.22
2022-12-15T21:08:46.528Z,-2.21
2022-12-15T21:11:19.512Z,-2.18
2022-12-15T21:13:49.955Z,-2.13
2022-12-15T21:16:20.602Z,-2.05
2022-12-15T21:19:18.585Z,-2.00
2022-12-15T21:21:39.413Z,-1.93
2022-12-15T21:24:16.330Z,-1.94
2022-12-15T21:26:46.546Z,-2.09
2022-12-15T21:29:16.393Z,-2.19
2022-12-15T21:31:44.790Z,-2.29
2022-12-15T21:34:13.545Z,-2.35
2022-12-15T21:36:43.960Z,-2.47
2022-12-15T21:39:16.627Z,-2.48
2022-12-15T21:41:46.235Z,-2.56
2022-12-15T21:44:15.076Z,-2.54
2022-12-15T21:46:43.589Z,-2.58
2022-12-15T21:49:14.383Z,-2.54
2022-12-15T21:51:44.900Z,-2.61
2022-12-15T21:54:18.355Z,-2.64
2022-12-15T21:56:48.954Z,-2.65
2022-12-15T21:59:18.602Z,-2.68
2022-12-15T22:01:47.528Z,-2.75
2022-12-15T22:04:19.567Z,-2.81
2022-12-15T22:09:36.992Z,-2.82
2022-12-15T22:12:07.849Z,-2.86
2022-12-15T22:14:36.447Z,-2.82
2022-12-15T22:17:16.939Z,-2.84
2022-12-15T22:19:45.579Z,-2.87
2022-12-15T22:22:13.922Z,-2.91
2022-12-15T22:24:42.149Z,-2.98
2022-12-15T22:27:20.199Z,-3.00
2022-12-15T22:29:49.263Z,-2.98
2022-12-15T22:32:18.088Z,-2.91
2022-12-15T22:34:46.329Z,-2.80
2022-12-15T22:37:14.647Z,-2.78
2022-12-15T22:39:42.852Z,-2.78
2022-12-15T22:42:16.118Z,-2.89
2022-12-15T22:44:45.272Z,-3.21
2022-12-15T22:47:13.594Z,-3.42
2022-12-15T22:49:42.826Z,-3.42
2022-12-15T22:52:18.132Z,-3.52
2022-12-15T22:54:46.536Z,-3.53
2022-12-15T22:57:22.031Z,-3.58
2022-12-15T22:59:54.623Z,-3.53
2022-12-15T23:02:22.993Z,-3.58
2022-12-15T23:04:51.305Z,-3.45
2022-12-15T23:07:20.119Z,-3.30
2022-12-15T23:09:48.343Z,-3.16
2022-12-15T23:12:16.958Z,-3.16
2022-12-15T23:15:02.763Z,-3.05
2022-12-15T23:17:31.267Z,-2.97
2022-12-15T23:19:59.488Z,-2.95
2022-12-15T23:22:27.709Z,-2.89
2022-12-15T23:24:56.147Z,-2.69
2022-12-15T23:27:26.349Z,-2.60
2022-12-15T23:29:54.586Z,-2.51
2022-12-15T23:32:23.177Z,-2.47
2022-12-15T23:34:51.499Z,-2.37
2022-12-15T23:37:19.845Z,-2.44
2022-12-15T23:39:48.060Z,-2.47
2022-12-15T23:42:16.272Z,-2.47
2022-12-15T23:44:45.844Z,-2.54
2022-12-15T23:47:14.108Z,-2.60
2022-12-15T23:49:42.406Z,-2.67
2022-12-15T23:52:10.788Z,-2.68
2022-12-15T23:54:38.965Z,-2.66
2022-12-15T23:57:07.240Z,-2.61
2022-12-15T23:59:36.430Z,-2.61
